createdAt,value
2023-01-29T00:01:56.760Z,85.63
2023-01-29T00:04:24.277Z,85.78
2023-01-29T00:06:51.192Z,86.44
2023-01-29T00:09:18.638Z,86.61
2023-01-29T00:11:45.611Z,86.22
2023-01-29T00:14:13.240Z,86.74
2023-01-29T00:16:40.093Z,86.66
2023-01-29T00:19:07.330Z,86.90
2023-01-29T00:21:34.658Z,86.68
2023-01-29T00:24:01.608Z,86.11
2023-01-29T00:26:29.014Z,86.40
2023-01-29T00:29:02.003Z,86.74
2023-01-29T00:31:29.319Z,87.12
2023-01-29T00:33:56.425Z,86.95
2023-01-29T00:36:25.358Z,87.20
2023-01-29T00:39:02.897Z,86.72
2023-01-29T00:41:51.101Z,86.93
2023-01-29T00:44:37.306Z,87.25
2023-01-29T00:47:05.202Z,85.98
2023-01-29T00:49:32.045Z,86.32
2023-01-29T00:52:17.429Z,85.54
2023-01-29T00:54:44.429Z,86.12
2023-01-29T00:57:36.204Z,86.15
2023-01-29T01:00:07.635Z,86.41
2023-01-29T01:02:53.165Z,84.44
2023-01-29T01:05:20.428Z,84.58
2023-01-29T01:07:53.567Z,84.67
2023-01-29T01:10:29.287Z,84.87
2023-01-29T01:13:07.189Z,85.19
2023-01-29T01:15:37.437Z,84.85
2023-01-29T01:18:05.049Z,84.60
2023-01-29T01:20:35.501Z,84.60
2023-01-29T01:23:03.254Z,84.13
2023-01-29T01:25:30.065Z,84.39
2023-01-29T01:30:26.959Z,83.31
2023-01-29T01:32:54.111Z,83.08
2023-01-29T01:35:21.137Z,83.28
2023-01-29T01:37:48.108Z,82.54
2023-01-29T01:40:19.320Z,83.29
2023-01-29T01:42:55.668Z,83.58
2023-01-29T01:45:36.576Z,83.44
2023-01-29T01:48:13.204Z,82.95
2023-01-29T01:51:06.854Z,83.38
2023-01-29T01:53:52.610Z,83.66
2023-01-29T01:56:38.161Z,83.15
2023-01-29T01:59:10.920Z,82.74
2023-01-29T02:01:42.885Z,83.38
2023-01-29T02:04:35.157Z,83.38
2023-01-29T02:07:23.819Z,83.07
2023-01-29T02:10:01.851Z,82.88
2023-01-29T02:12:31.215Z,83.37
2023-01-29T02:14:58.169Z,83.15
2023-01-29T02:17:25.243Z,83.46
2023-01-29T02:20:24.438Z,83.34
2023-01-29T02:23:12.207Z,82.99
2023-01-29T02:26:27.632Z,82.49
2023-01-29T02:29:22.695Z,82.45
2023-01-29T02:32:17.538Z,82.05
2023-01-29T02:35:14.653Z,81.85
2023-01-29T02:38:18.220Z,81.48
2023-01-29T02:41:01.616Z,81.73
2023-01-29T02:43:58.021Z,81.24
2023-01-29T02:46:37.342Z,81.90
2023-01-29T02:49:24.716Z,82.52
2023-01-29T02:52:17.394Z,81.43
2023-01-29T02:54:53.459Z,81.37
2023-01-29T02:57:29.112Z,82.61
2023-01-29T03:00:09.599Z,81.76
2023-01-29T03:02:49.704Z,81.56
2023-01-29T03:05:30.991Z,81.22
2023-01-29T03:08:06.692Z,80.92
2023-01-29T03:10:58.659Z,80.65
2023-01-29T03:14:07.465Z,79.64
2023-01-29T03:16:45.837Z,79.73
2023-01-29T03:19:26.032Z,79.56
2023-01-29T03:21:59.972Z,79.40
2023-01-29T03:25:08.987Z,78.87
2023-01-29T03:28:02.518Z,79.41
2023-01-29T03:30:59.426Z,80.30
2023-01-29T03:33:47.054Z,79.79
2023-01-29T03:36:26.879Z,80.85
2023-01-29T03:38:53.946Z,82.08
2023-01-29T03:41:36.796Z,81.64
2023-01-29T03:44:43.366Z,81.46
2023-01-29T03:47:27.582Z,81.64
2023-01-29T03:50:13.206Z,81.47
2023-01-29T03:52:46.101Z,80.21
2023-01-29T03:55:22.957Z,79.60
2023-01-29T03:58:00.959Z,78.93
2023-01-29T04:00:37.791Z,79.24
2023-01-29T04:03:17.062Z,79.93
2023-01-29T04:06:09.870Z,79.90
2023-01-29T04:09:01.873Z,79.63
2023-01-29T04:11:31.105Z,79.78
2023-01-29T04:13:58.471Z,79.28
2023-01-29T04:16:44.774Z,78.62
2023-01-29T04:19:30.631Z,79.01
2023-01-29T04:22:21.132Z,78.70
2023-01-29T04:24:50.143Z,78.75
2023-01-29T04:27:44.365Z,79.15
2023-01-29T04:30:39.674Z,78.62
2023-01-29T04:33:22.171Z,79.27
2023-01-29T04:36:18.246Z,79.32
2023-01-29T04:39:03.776Z,78.74
2023-01-29T04:41:59.803Z,79.46
2023-01-29T04:44:40.087Z,79.12
2023-01-29T04:47:49.487Z,78.40
2023-01-29T04:50:30.207Z,79.49
2023-01-29T04:53:15.737Z,80.88
2023-01-29T04:55:55.382Z,80.16
2023-01-29T04:58:41.720Z,80.86
2023-01-29T05:01:14.151Z,80.40
2023-01-29T05:03:45.902Z,80.36
2023-01-29T05:06:14.063Z,80.30
2023-01-29T05:08:42.275Z,80.05
2023-01-29T05:11:10.066Z,79.91
2023-01-29T05:13:41.091Z,79.83
2023-01-29T05:16:12.749Z,79.91
2023-01-29T05:18:40.974Z,80.40
2023-01-29T05:21:09.451Z,79.53
2023-01-29T05:23:36.938Z,79.65
2023-01-29T05:26:04.424Z,80.04
2023-01-29T05:28:31.669Z,78.40
2023-01-29T05:30:58.644Z,78.47
2023-01-29T05:33:31.313Z,78.46
2023-01-29T05:36:01.297Z,78.82
2023-01-29T05:38:28.270Z,79.57
2023-01-29T05:40:55.122Z,79.40
2023-01-29T05:43:25.114Z,79.67
2023-01-29T05:46:01.581Z,79.22
2023-01-29T05:48:29.917Z,78.24
2023-01-29T05:51:04.317Z,77.99
2023-01-29T05:53:32.412Z,78.34
2023-01-29T05:56:02.480Z,79.11
2023-01-29T05:58:31.854Z,77.86
2023-01-29T06:00:58.734Z,78.51
2023-01-29T06:03:25.875Z,77.90
2023-01-29T06:05:52.735Z,79.44
2023-01-29T06:08:19.664Z,78.77
2023-01-29T06:10:46.457Z,77.96
2023-01-29T06:13:13.346Z,78.06
2023-01-29T06:15:41.843Z,78.80
2023-01-29T06:18:08.671Z,79.25
2023-01-29T06:20:35.610Z,79.34
2023-01-29T06:23:02.625Z,78.80
2023-01-29T06:25:29.486Z,77.07
2023-01-29T06:27:59.310Z,77.56
2023-01-29T06:30:26.843Z,77.19
2023-01-29T06:32:58.780Z,77.71
2023-01-29T06:35:26.080Z,77.58
2023-01-29T06:37:53.326Z,77.46
2023-01-29T06:40:20.377Z,78.13
2023-01-29T06:42:47.185Z,77.65
2023-01-29T06:45:14.218Z,77.69
2023-01-29T06:47:41.239Z,77.93
2023-01-29T06:50:08.837Z,77.40
2023-01-29T06:52:35.702Z,77.21
2023-01-29T06:55:02.603Z,78.09
2023-01-29T06:57:30.182Z,77.96
2023-01-29T06:59:57.161Z,77.55
2023-01-29T07:02:24.157Z,77.80
2023-01-29T07:04:51.238Z,78.42
2023-01-29T07:07:18.519Z,77.94
2023-01-29T07:09:45.518Z,77.47
2023-01-29T07:12:12.348Z,77.29
2023-01-29T07:14:39.231Z,77.42
2023-01-29T07:17:06.045Z,77.65
2023-01-29T07:19:33.033Z,77.73
2023-01-29T07:22:02.467Z,78.11
2023-01-29T07:24:29.500Z,78.13
2023-01-29T07:26:56.857Z,78.84
2023-01-29T07:29:23.970Z,78.24
2023-01-29T07:31:50.959Z,78.54
2023-01-29T07:34:17.989Z,77.75
2023-01-29T07:36:44.893Z,77.94
2023-01-29T07:39:11.784Z,78.53
2023-01-29T07:41:38.589Z,79.00
2023-01-29T07:44:15.501Z,78.52
2023-01-29T07:46:42.427Z,79.24
2023-01-29T07:49:09.367Z,78.89
2023-01-29T07:51:36.232Z,79.34
2023-01-29T07:54:03.119Z,79.78
2023-01-29T07:56:30.130Z,79.35
2023-01-29T07:58:57.039Z,79.26
2023-01-29T08:01:24.067Z,78.21
2023-01-29T08:03:51.494Z,78.37
2023-01-29T08:06:19.327Z,78.37
2023-01-29T08:08:46.292Z,78.46
2023-01-29T08:11:13.216Z,78.75
2023-01-29T08:13:40.106Z,79.06
2023-01-29T08:16:07.740Z,78.06
2023-01-29T08:18:38.605Z,78.16
2023-01-29T08:21:05.858Z,79.12
2023-01-29T08:23:32.702Z,78.00
2023-01-29T08:25:59.695Z,78.13
2023-01-29T08:28:26.748Z,78.31
2023-01-29T08:30:53.815Z,78.19
2023-01-29T08:33:29.826Z,77.88
2023-01-29T08:36:04.362Z,78.13
2023-01-29T08:38:31.345Z,78.28
2023-01-29T08:40:58.239Z,78.50
2023-01-29T08:43:25.264Z,78.22
2023-01-29T08:45:52.254Z,77.16
2023-01-29T08:48:19.112Z,77.27
2023-01-29T08:50:46.127Z,78.02
2023-01-29T08:53:13.069Z,77.56
2023-01-29T08:55:41.362Z,77.07
2023-01-29T08:58:11.607Z,76.01
2023-01-29T09:00:39.009Z,77.30
2023-01-29T09:03:07.800Z,75.89
2023-01-29T09:05:39.461Z,76.62
2023-01-29T09:08:09.026Z,76.09
2023-01-29T09:10:36.033Z,75.40
2023-01-29T09:13:03.104Z,75.89
2023-01-29T09:15:30.167Z,75.70
2023-01-29T09:17:57.053Z,75.97
2023-01-29T09:20:24.074Z,76.00
2023-01-29T09:22:53.538Z,74.99
2023-01-29T09:25:20.484Z,75.51
2023-01-29T09:27:47.346Z,75.17
2023-01-29T09:30:14.668Z,75.53
2023-01-29T09:32:57.265Z,75.92
2023-01-29T09:35:24.515Z,75.81
2023-01-29T09:37:52.360Z,76.00
2023-01-29T09:40:34.500Z,76.06
2023-01-29T09:43:43.609Z,74.31
2023-01-29T09:46:27.345Z,74.08
2023-01-29T09:49:07.093Z,74.50
2023-01-29T09:51:45.022Z,73.85
2023-01-29T09:54:29.676Z,73.93
2023-01-29T09:56:57.515Z,71.67
2023-01-29T09:59:29.872Z,72.81
2023-01-29T10:02:14.685Z,72.50
2023-01-29T10:05:26.935Z,73.51
2023-01-29T10:09:07.781Z,73.00
2023-01-29T10:12:07.841Z,72.94
2023-01-29T10:15:17.929Z,72.73
2023-01-29T10:18:31.706Z,73.24
2023-01-29T10:21:19.665Z,74.04
2023-01-29T10:24:10.853Z,74.22
2023-01-29T10:26:40.593Z,73.74
2023-01-29T10:29:14.408Z,73.33
2023-01-29T10:31:41.483Z,74.18
2023-01-29T10:34:22.155Z,74.82
2023-01-29T10:36:50.404Z,74.01
2023-01-29T10:39:23.215Z,75.26
2023-01-29T10:42:29.711Z,73.39
2023-01-29T10:45:30.441Z,74.40
2023-01-29T10:48:31.031Z,73.20
2023-01-29T10:51:22.485Z,72.89
2023-01-29T10:54:13.333Z,71.79
2023-01-29T10:57:01.432Z,73.05
2023-01-29T11:00:13.156Z,71.29
2023-01-29T11:02:48.644Z,73.43
2023-01-29T11:05:31.129Z,72.44
2023-01-29T11:08:21.578Z,73.39
2023-01-29T11:11:11.818Z,71.94
2023-01-29T11:14:10.754Z,72.62
2023-01-29T11:16:56.442Z,73.07
2023-01-29T11:19:40.095Z,71.65
2023-01-29T11:22:19.823Z,71.10
2023-01-29T11:25:07.918Z,71.98
2023-01-29T11:27:52.116Z,72.83
2023-01-29T11:30:28.346Z,70.41
2023-01-29T11:33:18.573Z,70.10
2023-01-29T11:35:46.131Z,71.51
2023-01-29T11:38:15.719Z,70.57
2023-01-29T11:40:43.584Z,69.78
2023-01-29T11:43:30.871Z,70.05
2023-01-29T11:46:05.043Z,70.73
2023-01-29T11:48:58.988Z,72.13
2023-01-29T11:51:39.989Z,70.07
2023-01-29T11:54:15.124Z,69.86
2023-01-29T11:56:45.415Z,69.82
2023-01-29T11:59:32.292Z,70.14
2023-01-29T12:02:28.236Z,71.06
2023-01-29T12:04:59.564Z,71.59
2023-01-29T12:07:26.687Z,68.85
2023-01-29T12:09:59.710Z,69.80
2023-01-29T12:12:34.768Z,70.47
2023-01-29T12:15:09.020Z,70.15
2023-01-29T12:17:39.541Z,69.12
2023-01-29T12:20:18.474Z,70.30
2023-01-29T12:23:21.027Z,70.61
2023-01-29T12:26:15.842Z,69.58
2023-01-29T12:28:48.226Z,70.54
2023-01-29T12:31:33.995Z,70.22
2023-01-29T12:34:43.500Z,69.96
2023-01-29T12:38:16.908Z,69.60
2023-01-29T12:41:06.027Z,70.64
2023-01-29T12:43:42.907Z,69.99
2023-01-29T12:46:22.488Z,70.89
2023-01-29T12:48:50.660Z,71.21
2023-01-29T12:51:28.015Z,71.64
2023-01-29T12:54:04.981Z,71.06
2023-01-29T12:56:52.711Z,70.72
2023-01-29T12:59:36.585Z,72.22
2023-01-29T13:02:42.101Z,71.48
2023-01-29T13:05:37.669Z,69.99
2023-01-29T13:08:16.317Z,69.55
2023-01-29T13:10:50.619Z,70.25
2023-01-29T13:13:54.090Z,71.33
2023-01-29T13:16:30.931Z,70.90
2023-01-29T13:19:04.654Z,70.14
2023-01-29T13:21:39.847Z,71.87
2023-01-29T13:24:23.899Z,71.94
2023-01-29T13:26:51.536Z,71.01
2023-01-29T13:29:28.457Z,71.17
2023-01-29T13:31:58.528Z,70.64
2023-01-29T13:34:46.535Z,71.14
2023-01-29T13:37:29.891Z,71.73
2023-01-29T13:39:59.551Z,70.80
2023-01-29T13:42:49.987Z,70.80
2023-01-29T13:45:21.426Z,71.00
2023-01-29T13:47:49.999Z,72.20
2023-01-29T13:50:36.054Z,72.05
2023-01-29T13:53:06.651Z,72.52
2023-01-29T13:55:39.337Z,71.62
2023-01-29T13:58:17.061Z,72.36
2023-01-29T14:00:43.879Z,71.77
2023-01-29T14:03:13.448Z,73.54
2023-01-29T14:05:42.197Z,72.33
2023-01-29T14:08:08.978Z,73.91
2023-01-29T14:10:37.636Z,71.95
2023-01-29T14:13:04.420Z,73.26
2023-01-29T14:15:36.893Z,73.17
2023-01-29T14:18:18.883Z,73.13
2023-01-29T14:20:48.464Z,72.86
2023-01-29T14:23:30.679Z,73.31
2023-01-29T14:26:02.712Z,72.79
2023-01-29T14:28:32.560Z,73.11
2023-01-29T14:31:00.036Z,73.63
2023-01-29T14:33:40.998Z,74.24
2023-01-29T14:36:15.955Z,73.62
2023-01-29T14:38:52.533Z,73.32
2023-01-29T14:41:35.687Z,73.91
2023-01-29T14:44:46.787Z,73.66
2023-01-29T14:47:28.932Z,74.74
2023-01-29T14:49:59.044Z,73.79
2023-01-29T14:52:33.722Z,75.02
2023-01-29T14:55:06.757Z,74.50
2023-01-29T14:57:34.102Z,75.01
2023-01-29T15:00:07.211Z,74.76
2023-01-29T15:02:45.480Z,74.80
2023-01-29T15:05:21.690Z,75.88
2023-01-29T15:08:08.384Z,75.80
2023-01-29T15:11:12.487Z,75.95
2023-01-29T15:14:15.045Z,75.88
2023-01-29T15:17:06.725Z,76.32
2023-01-29T15:19:44.796Z,76.95
2023-01-29T15:22:15.855Z,78.34
2023-01-29T15:24:44.433Z,77.23
2023-01-29T15:27:19.473Z,77.11
2023-01-29T15:29:58.984Z,78.16
2023-01-29T15:32:40.315Z,79.27
2023-01-29T15:35:27.512Z,78.25
2023-01-29T15:38:18.338Z,78.84
2023-01-29T15:41:04.608Z,79.73
2023-01-29T15:43:37.414Z,78.83
2023-01-29T15:46:28.048Z,80.17
2023-01-29T15:49:00.108Z,79.81
2023-01-29T15:51:28.998Z,81.10
2023-01-29T15:54:05.688Z,80.51
2023-01-29T15:56:53.081Z,81.08
2023-01-29T15:59:29.342Z,81.29
2023-01-29T16:01:56.430Z,81.74
2023-01-29T16:04:31.388Z,82.44
2023-01-29T16:07:00.494Z,82.14
2023-01-29T16:09:28.793Z,82.76
2023-01-29T16:11:58.829Z,82.16
2023-01-29T16:14:26.762Z,82.60
2023-01-29T16:16:53.986Z,82.95
2023-01-29T16:19:27.002Z,83.11
2023-01-29T16:22:02.259Z,84.50
2023-01-29T16:24:32.539Z,84.65
2023-01-29T16:27:07.190Z,84.54
2023-01-29T16:29:35.583Z,84.69
2023-01-29T16:32:03.626Z,85.35
2023-01-29T16:34:48.283Z,84.99
2023-01-29T16:37:23.518Z,85.63
2023-01-29T16:39:52.723Z,85.33
2023-01-29T16:42:32.247Z,86.92
2023-01-29T16:45:05.215Z,86.33
2023-01-29T16:47:43.621Z,87.06
2023-01-29T16:50:36.046Z,86.30
2023-01-29T16:53:23.289Z,86.33
2023-01-29T16:55:52.493Z,86.64
2023-01-29T16:58:22.827Z,86.50
2023-01-29T17:00:59.414Z,86.12
2023-01-29T17:03:30.039Z,85.63
2023-01-29T17:05:57.195Z,86.08
2023-01-29T17:08:32.139Z,85.85
2023-01-29T17:11:00.106Z,86.13
2023-01-29T17:13:38.623Z,85.32
2023-01-29T17:16:32.584Z,85.33
2023-01-29T17:19:00.206Z,85.18
2023-01-29T17:21:29.162Z,85.60
2023-01-29T17:23:56.306Z,85.46
2023-01-29T17:26:24.677Z,84.70
2023-01-29T17:28:53.506Z,85.12
2023-01-29T17:31:20.473Z,84.88
2023-01-29T17:33:47.891Z,84.80
2023-01-29T17:36:17.739Z,84.79
2023-01-29T17:38:47.021Z,84.64
2023-01-29T17:41:13.740Z,85.02
2023-01-29T17:43:40.792Z,84.93
2023-01-29T17:46:14.875Z,84.13
2023-01-29T17:48:41.938Z,84.32
2023-01-29T17:51:14.627Z,83.94
2023-01-29T17:53:45.993Z,84.12
2023-01-29T17:56:21.092Z,84.14
2023-01-29T17:58:48.063Z,84.67
2023-01-29T18:01:14.983Z,83.93
2023-01-29T18:03:41.893Z,83.91
2023-01-29T18:06:10.847Z,83.28
2023-01-29T18:08:39.707Z,84.52
2023-01-29T18:11:07.048Z,84.72
2023-01-29T18:13:36.121Z,84.75
2023-01-29T18:16:03.284Z,85.25
2023-01-29T18:18:30.405Z,85.41
2023-01-29T18:20:57.311Z,85.69
2023-01-29T18:23:24.354Z,87.10
2023-01-29T18:25:52.715Z,87.00
2023-01-29T18:28:19.741Z,87.76
2023-01-29T18:30:47.569Z,87.65
2023-01-29T18:33:16.440Z,87.06
2023-01-29T18:35:49.467Z,86.49
2023-01-29T18:38:17.732Z,86.93
2023-01-29T18:40:44.616Z,86.03
2023-01-29T18:43:11.579Z,86.00
2023-01-29T18:45:38.534Z,85.73
2023-01-29T18:48:05.862Z,86.09
2023-01-29T18:50:33.396Z,86.89
2023-01-29T18:53:00.736Z,87.48
2023-01-29T18:55:27.696Z,87.56
2023-01-29T18:58:26.624Z,87.78
2023-01-29T19:00:42.641Z,88.07
2023-01-29T19:03:10.789Z,87.92
2023-01-29T19:05:37.873Z,88.65
2023-01-29T19:08:05.761Z,87.76
2023-01-29T19:10:33.777Z,89.08
2023-01-29T19:13:01.484Z,88.19
2023-01-29T19:15:28.731Z,88.72
2023-01-29T19:17:56.729Z,88.05
2023-01-29T19:20:23.604Z,87.58
2023-01-29T19:22:50.637Z,87.50
2023-01-29T19:25:19.601Z,87.33
2023-01-29T19:27:46.966Z,88.89
2023-01-29T19:30:14.211Z,88.00
2023-01-29T19:32:41.442Z,88.17
2023-01-29T19:35:08.495Z,87.76
2023-01-29T19:37:35.394Z,87.81
2023-01-29T19:40:02.387Z,88.38
2023-01-29T19:42:29.469Z,87.80
2023-01-29T19:44:56.453Z,87.67
2023-01-29T19:47:23.421Z,87.59
2023-01-29T19:49:50.354Z,87.54
2023-01-29T19:52:49.882Z,87.93
2023-01-29T19:55:18.580Z,87.44
2023-01-29T19:57:45.834Z,87.89
2023-01-29T20:00:15.472Z,86.84
2023-01-29T20:02:42.332Z,87.46
2023-01-29T20:05:12.019Z,87.23
2023-01-29T20:07:40.038Z,87.09
2023-01-29T20:10:11.275Z,87.54
2023-01-29T20:12:39.662Z,87.04
2023-01-29T20:15:07.504Z,86.89
2023-01-29T20:17:34.423Z,87.66
2023-01-29T20:20:01.289Z,86.63
2023-01-29T20:22:29.967Z,86.59
2023-01-29T20:24:57.088Z,86.06
2023-01-29T20:27:24.559Z,86.32
2023-01-29T20:29:52.588Z,86.04
2023-01-29T20:32:19.818Z,86.89
2023-01-29T20:34:51.812Z,86.44
2023-01-29T20:37:19.543Z,85.56
2023-01-29T20:39:47.118Z,85.66
2023-01-29T20:42:14.136Z,86.23
2023-01-29T20:44:41.685Z,86.20
2023-01-29T20:47:08.668Z,84.85
2023-01-29T20:49:35.719Z,85.32
2023-01-29T20:52:02.657Z,84.83
2023-01-29T20:54:30.043Z,84.79
2023-01-29T20:56:57.255Z,85.19
2023-01-29T20:59:24.402Z,85.32
2023-01-29T21:01:51.455Z,85.02
2023-01-29T21:04:18.451Z,84.57
2023-01-29T21:06:45.388Z,84.41
2023-01-29T21:09:12.220Z,85.24
2023-01-29T21:11:39.144Z,84.63
2023-01-29T21:14:06.089Z,84.62
2023-01-29T21:16:33.003Z,85.16
2023-01-29T21:19:00.055Z,84.62
2023-01-29T21:21:27.076Z,85.20
2023-01-29T21:23:54.480Z,84.93
2023-01-29T21:26:23.218Z,84.43
2023-01-29T21:28:50.138Z,84.77
2023-01-29T21:31:17.692Z,85.38
2023-01-29T21:33:44.795Z,85.03
2023-01-29T21:36:12.299Z,85.08
2023-01-29T21:38:39.928Z,85.43
2023-01-29T21:41:09.986Z,85.02
2023-01-29T21:43:37.831Z,84.92
2023-01-29T21:46:13.793Z,84.59
2023-01-29T21:48:41.068Z,84.64
2023-01-29T21:51:08.317Z,84.57
2023-01-29T21:53:36.630Z,85.32
2023-01-29T21:56:05.915Z,84.36
2023-01-29T21:58:32.807Z,84.37
2023-01-29T22:01:28.036Z,84.44
2023-01-29T22:03:47.544Z,83.93
2023-01-29T22:06:15.376Z,84.26
2023-01-29T22:08:42.674Z,83.38
2023-01-29T22:11:10.096Z,83.59
2023-01-29T22:13:37.290Z,83.32
2023-01-29T22:16:05.853Z,83.28
2023-01-29T22:18:33.204Z,83.52
2023-01-29T22:21:02.641Z,83.40
2023-01-29T22:23:31.181Z,83.05
2023-01-29T22:26:07.190Z,82.89
2023-01-29T22:28:35.074Z,82.67
2023-01-29T22:31:04.088Z,83.52
2023-01-29T22:33:31.834Z,83.19
2023-01-29T22:35:58.731Z,84.07
2023-01-29T22:38:25.998Z,83.47
2023-01-29T22:40:54.623Z,84.30
2023-01-29T22:43:22.747Z,84.39
2023-01-29T22:45:49.568Z,83.70
2023-01-29T22:48:16.500Z,84.18
2023-01-29T22:50:53.786Z,84.64
2023-01-29T22:53:20.862Z,84.74
2023-01-29T22:55:55.701Z,85.35
2023-01-29T22:58:22.680Z,85.05
2023-01-29T23:00:52.276Z,86.06
2023-01-29T23:03:19.132Z,85.90
2023-01-29T23:05:46.040Z,86.00
2023-01-29T23:08:12.937Z,86.19
2023-01-29T23:10:39.773Z,86.19
2023-01-29T23:13:06.723Z,86.52
2023-01-29T23:15:33.548Z,85.83
2023-01-29T23:18:00.467Z,85.91
2023-01-29T23:20:27.376Z,86.13
2023-01-29T23:22:54.368Z,86.46
2023-01-29T23:25:21.276Z,86.95
2023-01-29T23:27:48.179Z,87.22
2023-01-29T23:30:15.068Z,87.30
2023-01-29T23:32:42.438Z,87.24
2023-01-29T23:35:09.690Z,86.62
2023-01-29T23:37:36.570Z,87.60
2023-01-29T23:40:03.941Z,86.67
2023-01-29T23:42:30.880Z,87.12
2023-01-29T23:44:57.928Z,87.87
2023-01-29T23:47:24.791Z,86.92
2023-01-29T23:49:52.814Z,87.33
2023-01-29T23:52:19.852Z,87.26
2023-01-29T23:54:46.677Z,87.50
2023-01-29T23:57:13.574Z,88.24
2023-01-29T23:59:40.386Z,87.54
